Center Sandwich, New Hampshire
Current Conditions -  °F | °C
As of 7:35 PM on Thursday 18 Dec 2014 (Local Time) from K1P1 Reporting Station
Unknown Precip Unknown Precip  
Wind Chill: 26°   Ceiling: 2300
Heat Index: 32°   Visibility: 7mi
Dew Point: 31°   Wind: 7mph
Humidity: 98%   Direction: 290°WNW
Pressure: 29.83"   Gusts: NA
Location:  43.81°N, 71.44°W
Report Text: K1P1 190035Z AUTO 29006KT 7SM UP OVC023 00/00 A2983 RMK AO2 T00001003
Loading
Personal Weather Stations






























Interactive Weather Map New forecast layout! Learn more

10-Day Weather Forecast

Advertisements
Track Severe Weather on mobile